createdAt,value
2023-01-26T00:01:28.223Z,0.40
2023-01-26T00:03:55.875Z,0.40
2023-01-26T00:06:23.355Z,0.37
2023-01-26T00:08:52.632Z,0.38
2023-01-26T00:11:30.400Z,0.39
2023-01-26T00:13:59.649Z,0.38
2023-01-26T00:16:27.504Z,0.36
2023-01-26T00:18:54.257Z,0.43
2023-01-26T00:21:22.721Z,0.40
2023-01-26T00:23:50.354Z,0.38
2023-01-26T00:26:20.522Z,0.34
2023-01-26T00:28:47.648Z,0.20
2023-01-26T00:31:25.794Z,0.32
2023-01-26T00:33:54.041Z,0.20
2023-01-26T00:36:20.759Z,0.25
2023-01-26T00:38:48.350Z,0.25
2023-01-26T00:41:33.724Z,0.25
2023-01-26T00:44:01.818Z,0.36
2023-01-26T00:46:28.848Z,0.45
2023-01-26T00:48:55.606Z,0.32
2023-01-26T00:51:22.399Z,0.26
2023-01-26T00:53:49.022Z,0.29
2023-01-26T00:56:15.754Z,0.29
2023-01-26T00:58:43.088Z,0.28
2023-01-26T01:01:11.186Z,0.27
2023-01-26T01:03:42.012Z,0.29
2023-01-26T01:06:08.647Z,0.29
2023-01-26T01:08:35.359Z,0.52
2023-01-26T01:11:07.845Z,0.51
2023-01-26T01:13:34.833Z,0.41
2023-01-26T01:16:06.202Z,0.45
2023-01-26T01:18:33.790Z,0.43
2023-01-26T01:21:00.470Z,0.24
2023-01-26T01:23:30.187Z,0.10
2023-01-26T01:25:58.686Z,0.13
2023-01-26T01:28:25.445Z,0.14
2023-01-26T01:30:52.521Z,0.15
2023-01-26T01:33:19.495Z,0.04
2023-01-26T01:36:00.186Z,0.06
2023-01-26T01:38:27.659Z,0.08
2023-01-26T01:40:55.149Z,0.12
2023-01-26T01:43:23.168Z,0.15
2023-01-26T01:45:51.572Z,0.11
2023-01-26T01:48:37.100Z,0.17
2023-01-26T01:51:13.006Z,0.20
2023-01-26T01:53:43.174Z,0.23
2023-01-26T01:56:15.351Z,0.24
2023-01-26T01:58:43.506Z,0.24
2023-01-26T02:01:11.377Z,0.27
2023-01-26T02:03:39.123Z,0.24
2023-01-26T02:06:13.760Z,0.22
2023-01-26T02:08:44.974Z,0.20
2023-01-26T02:11:17.840Z,0.19
2023-01-26T02:13:47.529Z,0.26
2023-01-26T02:16:14.419Z,0.24
2023-01-26T02:18:41.549Z,0.21
2023-01-26T02:21:11.540Z,0.16
2023-01-26T02:24:07.791Z,0.14
2023-01-26T02:26:36.869Z,0.02
2023-01-26T02:29:07.847Z,0.03
2023-01-26T02:31:38.126Z,0.02
2023-01-26T02:34:04.889Z,0.03
2023-01-26T02:36:33.605Z,0.04
2023-01-26T02:39:09.193Z,0.08
2023-01-26T02:41:54.378Z,0.03
2023-01-26T02:44:22.962Z,0.15
2023-01-26T02:46:50.685Z,0.09
2023-01-26T02:49:36.357Z,0.06
2023-01-26T02:52:05.459Z,0.11
2023-01-26T02:54:51.951Z,0.05
2023-01-26T02:57:18.655Z,0.05
2023-01-26T02:59:45.369Z,0.07
2023-01-26T03:02:14.413Z,0.02
2023-01-26T03:04:42.240Z,0.02
2023-01-26T03:07:09.075Z,0.05
2023-01-26T03:09:35.729Z,-0.01
2023-01-26T03:12:02.546Z,0.01
2023-01-26T03:14:29.299Z,0.01
2023-01-26T03:16:56.031Z,-0.01
2023-01-26T03:19:41.267Z,0.01
2023-01-26T03:22:28.939Z,0.04
2023-01-26T03:25:15.513Z,0.01
2023-01-26T03:27:48.797Z,-0.03
2023-01-26T03:30:19.057Z,-0.01
2023-01-26T03:32:47.623Z,-0.02
2023-01-26T03:35:16.222Z,0.02
2023-01-26T03:37:44.801Z,0.04
2023-01-26T03:40:37.097Z,-0.01
2023-01-26T03:43:29.000Z,-0.01
2023-01-26T03:46:14.376Z,-0.06
2023-01-26T03:48:59.839Z,-0.05
2023-01-26T03:51:45.150Z,-0.05
2023-01-26T03:54:30.374Z,-0.04
2023-01-26T03:56:57.091Z,-0.04
2023-01-26T03:59:38.000Z,-0.07
2023-01-26T04:02:28.775Z,-0.03
2023-01-26T04:05:14.542Z,-0.10
2023-01-26T04:08:03.725Z,-0.06
2023-01-26T04:10:30.408Z,0.02
2023-01-26T04:13:15.547Z,0.01
2023-01-26T04:16:07.561Z,0.01
2023-01-26T04:18:52.829Z,-0.06
2023-01-26T04:21:35.776Z,-0.08
2023-01-26T04:24:16.657Z,-0.04
2023-01-26T04:26:44.405Z,-0.04
2023-01-26T04:29:16.821Z,-0.01
2023-01-26T04:31:45.472Z,0.03
2023-01-26T04:34:16.120Z,0.04
2023-01-26T04:36:43.959Z,-0.01
2023-01-26T04:39:11.168Z,-0.03
2023-01-26T04:41:42.517Z,-0.06
2023-01-26T04:44:13.081Z,-0.02
2023-01-26T04:46:40.677Z,-0.02
2023-01-26T04:49:07.482Z,-0.03
2023-01-26T04:51:35.297Z,-0.01
2023-01-26T04:54:03.115Z,0.04
2023-01-26T04:56:33.681Z,0.04
2023-01-26T04:59:04.010Z,0.03
2023-01-26T05:01:32.323Z,0.03
2023-01-26T05:04:00.523Z,0.01
2023-01-26T05:06:29.025Z,0.01
2023-01-26T05:08:56.177Z,0.06
2023-01-26T05:11:24.048Z,0.02
2023-01-26T05:14:04.542Z,-0.04
2023-01-26T05:16:49.548Z,0.04
2023-01-26T05:19:27.488Z,0.18
2023-01-26T05:22:09.939Z,0.15
2023-01-26T05:24:39.738Z,0.16
2023-01-26T05:27:26.597Z,0.18
2023-01-26T05:30:00.558Z,0.26
2023-01-26T05:32:29.441Z,0.09
2023-01-26T05:34:56.935Z,0.18
2023-01-26T05:37:25.584Z,0.29
2023-01-26T05:39:52.755Z,0.14
2023-01-26T05:42:20.361Z,0.13
2023-01-26T05:44:49.816Z,0.28
2023-01-26T05:47:17.832Z,0.16
2023-01-26T05:49:47.560Z,0.06
2023-01-26T05:52:22.436Z,0.06
2023-01-26T05:54:50.626Z,0.16
2023-01-26T05:57:17.784Z,-0.03
2023-01-26T05:59:50.112Z,-0.10
2023-01-26T06:02:17.747Z,-0.11
2023-01-26T06:04:45.296Z,-0.22
2023-01-26T06:07:13.671Z,-0.19
2023-01-26T06:10:15.869Z,-0.23
2023-01-26T06:12:56.207Z,-0.28
2023-01-26T06:15:52.124Z,-0.28
2023-01-26T06:18:23.164Z,-0.22
2023-01-26T06:20:53.888Z,-0.10
2023-01-26T06:23:21.292Z,-0.06
2023-01-26T06:25:48.155Z,-0.13
2023-01-26T06:28:14.804Z,-0.24
2023-01-26T06:30:42.016Z,-0.25
2023-01-26T06:33:11.938Z,-0.11
2023-01-26T06:35:39.533Z,-0.16
2023-01-26T06:38:11.105Z,-0.11
2023-01-26T06:40:37.756Z,-0.19
2023-01-26T06:43:04.432Z,-0.20
2023-01-26T06:45:33.851Z,-0.20
2023-01-26T06:48:00.900Z,-0.24
2023-01-26T06:50:33.078Z,-0.19
2023-01-26T06:53:02.909Z,-0.19
2023-01-26T06:55:52.789Z,-0.27
2023-01-26T06:58:41.978Z,-0.04
2023-01-26T07:01:41.517Z,-0.19
2023-01-26T07:04:08.194Z,-0.31
2023-01-26T07:06:34.821Z,-0.28
2023-01-26T07:09:01.600Z,-0.11
2023-01-26T07:11:30.567Z,-0.36
2023-01-26T07:13:57.589Z,-0.26
2023-01-26T07:16:24.326Z,-0.31
2023-01-26T07:18:51.075Z,-0.22
2023-01-26T07:21:18.964Z,-0.05
2023-01-26T07:23:46.550Z,-0.04
2023-01-26T07:26:14.191Z,0.08
2023-01-26T07:28:41.140Z,-0.01
2023-01-26T07:31:08.754Z,0.03
2023-01-26T07:33:35.856Z,-0.02
2023-01-26T07:36:02.816Z,-0.10
2023-01-26T07:38:30.184Z,-0.06
2023-01-26T07:40:57.266Z,-0.09
2023-01-26T07:43:24.083Z,0.13
2023-01-26T07:45:54.694Z,0.10
2023-01-26T07:48:23.583Z,0.05
2023-01-26T07:50:50.647Z,0.06
2023-01-26T07:53:19.536Z,0.10
2023-01-26T07:55:47.217Z,0.12
2023-01-26T07:58:14.059Z,0.22
2023-01-26T08:00:40.983Z,0.25
2023-01-26T08:03:07.975Z,0.31
2023-01-26T08:05:36.992Z,0.27
2023-01-26T08:08:04.827Z,0.24
2023-01-26T08:10:32.003Z,0.07
2023-01-26T08:13:00.669Z,0.16
2023-01-26T08:15:28.257Z,0.11
2023-01-26T08:17:55.540Z,0.20
2023-01-26T08:20:22.778Z,0.10
2023-01-26T08:22:49.421Z,0.14
2023-01-26T08:25:16.147Z,0.11
2023-01-26T08:27:42.803Z,0.15
2023-01-26T08:30:10.361Z,0.28
2023-01-26T08:32:37.804Z,0.29
2023-01-26T08:35:04.702Z,0.34
2023-01-26T08:37:31.412Z,0.27
2023-01-26T08:39:58.259Z,0.24
2023-01-26T08:42:26.123Z,0.37
2023-01-26T08:44:52.790Z,0.41
2023-01-26T08:47:19.404Z,0.37
2023-01-26T08:49:46.022Z,0.25
2023-01-26T08:52:12.672Z,0.35
2023-01-26T08:54:39.382Z,0.36
2023-01-26T08:57:06.609Z,0.37
2023-01-26T08:59:33.282Z,0.45
2023-01-26T09:02:00.012Z,0.45
2023-01-26T09:04:27.577Z,0.34
2023-01-26T09:06:54.511Z,0.52
2023-01-26T09:09:21.225Z,0.49
2023-01-26T09:11:48.018Z,0.36
2023-01-26T09:14:14.906Z,0.51
2023-01-26T09:16:41.615Z,0.54
2023-01-26T09:19:08.453Z,0.66
2023-01-26T09:21:35.151Z,0.57
2023-01-26T09:24:02.599Z,0.47
2023-01-26T09:26:30.661Z,0.49
2023-01-26T09:28:58.043Z,0.16
2023-01-26T09:31:24.940Z,0.20
2023-01-26T09:33:51.917Z,0.33
2023-01-26T09:36:18.903Z,0.36
2023-01-26T09:38:46.016Z,0.47
2023-01-26T09:41:21.636Z,0.64
2023-01-26T09:43:52.591Z,0.70
2023-01-26T09:46:47.243Z,0.57
2023-01-26T09:49:19.320Z,0.68
2023-01-26T09:51:51.975Z,0.58
2023-01-26T09:54:40.165Z,0.62
2023-01-26T09:57:16.636Z,0.73
2023-01-26T10:00:27.708Z,0.67
2023-01-26T10:03:31.220Z,0.72
2023-01-26T10:06:13.721Z,0.65
2023-01-26T10:09:14.626Z,0.81
2023-01-26T10:11:48.798Z,0.76
2023-01-26T10:14:30.685Z,0.68
2023-01-26T10:16:59.619Z,0.68
2023-01-26T10:19:42.462Z,0.81
2023-01-26T10:22:22.630Z,0.84
2023-01-26T10:24:51.678Z,0.81
2023-01-26T10:27:19.105Z,0.47
2023-01-26T10:29:45.819Z,0.46
2023-01-26T10:32:18.000Z,0.62
2023-01-26T10:34:49.069Z,0.51
2023-01-26T10:37:38.185Z,0.66
2023-01-26T10:40:07.560Z,0.77
2023-01-26T10:42:35.637Z,0.95
2023-01-26T10:45:06.565Z,0.99
2023-01-26T10:47:33.626Z,0.96
2023-01-26T10:50:24.611Z,0.99
2023-01-26T10:53:03.415Z,0.92
2023-01-26T10:55:31.996Z,1.02
2023-01-26T10:57:58.866Z,1.10
2023-01-26T11:00:34.255Z,1.18
2023-01-26T11:03:06.442Z,1.11
2023-01-26T11:05:33.351Z,1.12
2023-01-26T11:08:03.741Z,1.08
2023-01-26T11:10:36.286Z,1.15
2023-01-26T11:13:13.447Z,1.21
2023-01-26T11:15:43.130Z,1.26
2023-01-26T11:18:44.492Z,1.31
2023-01-26T11:21:27.550Z,1.37
2023-01-26T11:24:00.336Z,1.24
2023-01-26T11:26:52.394Z,1.30
2023-01-26T11:29:30.957Z,1.31
2023-01-26T11:32:20.090Z,1.27
2023-01-26T11:35:09.971Z,1.32
2023-01-26T11:37:46.205Z,1.45
2023-01-26T11:40:27.744Z,1.23
2023-01-26T11:43:21.834Z,1.31
2023-01-26T11:46:07.214Z,1.30
2023-01-26T11:48:45.269Z,1.41
2023-01-26T11:51:44.282Z,1.40
2023-01-26T11:54:27.660Z,1.50
2023-01-26T11:57:20.383Z,1.50
2023-01-26T12:00:05.571Z,1.57
2023-01-26T12:02:41.891Z,1.57
2023-01-26T12:05:21.063Z,1.63
2023-01-26T12:08:06.149Z,1.55
2023-01-26T12:10:56.385Z,1.48
2023-01-26T12:13:32.037Z,1.41
2023-01-26T12:16:09.234Z,1.37
2023-01-26T12:19:11.135Z,1.41
2023-01-26T12:21:43.613Z,1.50
2023-01-26T12:24:39.564Z,1.42
2023-01-26T12:27:09.645Z,1.36
2023-01-26T12:29:46.748Z,1.33
2023-01-26T12:32:15.012Z,1.26
2023-01-26T12:34:41.695Z,1.35
2023-01-26T12:37:27.024Z,1.41
2023-01-26T12:40:04.143Z,1.46
2023-01-26T12:42:47.506Z,1.52
2023-01-26T12:45:22.021Z,1.47
2023-01-26T12:47:54.041Z,1.51
2023-01-26T12:50:32.605Z,1.54
2023-01-26T12:53:37.977Z,1.50
2023-01-26T12:56:13.650Z,1.45
2023-01-26T12:58:45.918Z,1.34
2023-01-26T13:01:16.151Z,1.36
2023-01-26T13:04:08.947Z,1.39
2023-01-26T13:06:35.782Z,1.43
2023-01-26T13:09:05.990Z,1.30
2023-01-26T13:11:46.668Z,1.21
2023-01-26T13:14:42.536Z,1.25
2023-01-26T13:17:15.029Z,1.29
2023-01-26T13:19:44.629Z,1.35
2023-01-26T13:22:26.365Z,1.12
2023-01-26T13:24:55.795Z,1.07
2023-01-26T13:27:40.374Z,1.04
2023-01-26T13:30:22.324Z,1.18
2023-01-26T13:32:49.062Z,1.17
2023-01-26T13:35:24.524Z,1.00
2023-01-26T13:37:59.382Z,1.09
2023-01-26T13:40:40.418Z,1.00
2023-01-26T13:43:26.736Z,1.09
2023-01-26T13:46:05.081Z,1.11
2023-01-26T13:48:49.412Z,1.08
2023-01-26T13:51:37.047Z,1.06
2023-01-26T13:54:14.978Z,1.07
2023-01-26T13:57:03.240Z,1.09
2023-01-26T13:59:30.119Z,1.12
2023-01-26T14:01:57.862Z,1.15
2023-01-26T14:04:30.018Z,1.22
2023-01-26T14:06:59.017Z,1.17
2023-01-26T14:09:32.041Z,1.12
2023-01-26T14:12:00.617Z,1.05
2023-01-26T14:14:31.621Z,1.10
2023-01-26T14:16:59.999Z,0.99
2023-01-26T14:19:29.951Z,1.02
2023-01-26T14:22:02.275Z,1.00
2023-01-26T14:24:43.063Z,0.94
2023-01-26T14:27:41.048Z,0.93
2023-01-26T14:30:30.789Z,0.94
2023-01-26T14:33:01.410Z,0.92
2023-01-26T14:35:28.737Z,0.98
2023-01-26T14:38:11.145Z,0.87
2023-01-26T14:40:52.005Z,0.78
2023-01-26T14:43:21.416Z,0.78
2023-01-26T14:46:17.049Z,0.95
2023-01-26T14:48:50.012Z,0.87
2023-01-26T14:51:22.099Z,0.80
2023-01-26T14:53:54.810Z,0.76
2023-01-26T14:56:29.382Z,0.71
2023-01-26T14:58:56.216Z,0.69
2023-01-26T15:01:25.451Z,0.65
2023-01-26T15:03:59.458Z,0.60
2023-01-26T15:06:28.552Z,0.61
2023-01-26T15:08:57.329Z,0.62
2023-01-26T15:11:45.878Z,0.56
2023-01-26T15:14:30.331Z,0.54
2023-01-26T15:16:57.029Z,0.53
2023-01-26T15:19:25.729Z,0.49
2023-01-26T15:21:53.125Z,0.46
2023-01-26T15:24:19.987Z,0.50
2023-01-26T15:26:46.745Z,0.40
2023-01-26T15:29:32.405Z,0.44
2023-01-26T15:31:59.527Z,0.41
2023-01-26T15:34:37.675Z,0.41
2023-01-26T15:37:26.833Z,0.41
2023-01-26T15:39:53.472Z,0.30
2023-01-26T15:42:24.848Z,0.27
2023-01-26T15:44:51.469Z,0.25
2023-01-26T15:47:18.336Z,0.27
2023-01-26T15:49:45.033Z,0.28
2023-01-26T15:52:16.498Z,0.27
2023-01-26T15:54:43.576Z,0.33
2023-01-26T15:57:13.828Z,0.30
2023-01-26T15:59:40.972Z,0.27
2023-01-26T16:02:19.964Z,0.26
2023-01-26T16:04:47.338Z,0.22
2023-01-26T16:07:16.996Z,0.19
2023-01-26T16:09:44.199Z,0.26
2023-01-26T16:12:30.524Z,0.23
2023-01-26T16:14:58.915Z,0.12
2023-01-26T16:17:26.003Z,0.13
2023-01-26T16:19:52.873Z,0.13
2023-01-26T16:22:19.599Z,0.15
2023-01-26T16:24:46.721Z,0.17
2023-01-26T16:27:13.357Z,0.20
2023-01-26T16:29:40.047Z,0.17
2023-01-26T16:32:26.534Z,0.19
2023-01-26T16:34:53.241Z,0.20
2023-01-26T16:37:20.112Z,0.23
2023-01-26T16:39:47.072Z,0.24
2023-01-26T16:42:18.911Z,0.19
2023-01-26T16:44:46.585Z,0.16
2023-01-26T16:47:13.469Z,0.23
2023-01-26T16:49:40.196Z,0.19
2023-01-26T16:52:08.701Z,0.18
2023-01-26T16:54:35.717Z,0.14
2023-01-26T16:57:02.500Z,0.16
2023-01-26T16:59:29.367Z,0.16
2023-01-26T17:01:58.797Z,0.16
2023-01-26T17:04:25.826Z,0.15
2023-01-26T17:06:52.675Z,0.34
2023-01-26T17:09:21.155Z,0.90
2023-01-26T17:11:47.980Z,1.22
2023-01-26T17:14:14.890Z,1.39
2023-01-26T17:16:41.717Z,1.48
2023-01-26T17:19:09.423Z,1.33
2023-01-26T17:21:37.144Z,1.18
2023-01-26T17:24:04.320Z,0.95
2023-01-26T17:26:31.265Z,0.81
2023-01-26T17:28:58.080Z,0.67
2023-01-26T17:31:25.673Z,0.59
2023-01-26T17:33:54.602Z,0.46
2023-01-26T17:36:21.688Z,0.40
2023-01-26T17:38:48.760Z,0.37
2023-01-26T17:41:16.594Z,0.30
2023-01-26T17:43:43.344Z,0.25
2023-01-26T17:46:15.353Z,0.22
2023-01-26T17:48:45.211Z,0.20
2023-01-26T17:51:14.788Z,0.17
2023-01-26T17:53:43.497Z,0.16
2023-01-26T17:56:12.810Z,0.13
2023-01-26T17:58:40.200Z,0.11
2023-01-26T18:01:08.722Z,0.13
2023-01-26T18:03:39.714Z,0.09
2023-01-26T18:06:06.962Z,0.05
2023-01-26T18:08:33.610Z,0.04
2023-01-26T18:11:02.433Z,0.05
2023-01-26T18:13:30.659Z,0.01
2023-01-26T18:15:58.296Z,0.08
2023-01-26T18:18:27.107Z,0.03
2023-01-26T18:20:54.271Z,0.06
2023-01-26T18:23:22.393Z,0.07
2023-01-26T18:25:49.690Z,0.01
2023-01-26T18:28:17.006Z,-0.01
2023-01-26T18:30:44.563Z,-0.03
2023-01-26T18:33:11.498Z,-0.05
2023-01-26T18:35:38.320Z,0.00
2023-01-26T18:38:05.273Z,-0.02
2023-01-26T18:40:32.484Z,-0.05
2023-01-26T18:42:59.349Z,-0.06
2023-01-26T18:45:26.816Z,-0.05
2023-01-26T18:47:53.788Z,0.04
2023-01-26T18:50:20.588Z,0.01
2023-01-26T18:52:47.235Z,-0.02
2023-01-26T18:55:14.374Z,-0.02
2023-01-26T18:57:41.317Z,-0.04
2023-01-26T19:00:09.259Z,-0.04
2023-01-26T19:02:39.430Z,-0.07
2023-01-26T19:05:07.791Z,-0.12
2023-01-26T19:07:35.750Z,-0.16
2023-01-26T19:10:04.898Z,-0.15
2023-01-26T19:12:31.799Z,-0.17
2023-01-26T19:14:58.515Z,-0.15
2023-01-26T19:17:25.331Z,-0.15
2023-01-26T19:19:52.018Z,-0.19
2023-01-26T19:22:19.041Z,-0.20
2023-01-26T19:24:45.780Z,-0.28
2023-01-26T19:27:12.941Z,-0.29
2023-01-26T19:29:39.785Z,-0.30
2023-01-26T19:32:06.780Z,-0.28
2023-01-26T19:34:35.069Z,-0.26
2023-01-26T19:37:01.758Z,-0.25
2023-01-26T19:39:28.503Z,-0.23
2023-01-26T19:41:55.469Z,-0.23
2023-01-26T19:44:22.111Z,-0.19
2023-01-26T19:46:51.443Z,-0.25
2023-01-26T19:49:18.884Z,-0.23
2023-01-26T19:51:45.682Z,-0.26
2023-01-26T19:54:13.804Z,-0.24
2023-01-26T19:56:40.746Z,-0.20
2023-01-26T19:59:10.459Z,-0.24
2023-01-26T20:01:37.423Z,-0.28
2023-01-26T20:04:07.600Z,-0.30
2023-01-26T20:06:36.220Z,-0.31
2023-01-26T20:09:04.728Z,-0.36
2023-01-26T20:11:31.851Z,-0.35
2023-01-26T20:14:01.312Z,-0.38
2023-01-26T20:16:29.553Z,-0.40
2023-01-26T20:18:58.734Z,-0.38
2023-01-26T20:21:26.139Z,-0.39
2023-01-26T20:23:55.305Z,-0.37
2023-01-26T20:26:24.398Z,-0.42
2023-01-26T20:28:51.801Z,-0.42
2023-01-26T20:31:21.633Z,-0.41
2023-01-26T20:33:49.585Z,-0.43
2023-01-26T20:36:22.710Z,-0.46
2023-01-26T20:38:49.721Z,-0.39
2023-01-26T20:41:20.215Z,-0.41
2023-01-26T20:44:03.112Z,-0.32
2023-01-26T20:46:32.927Z,-0.37
2023-01-26T20:49:00.461Z,-0.37
2023-01-26T20:51:31.245Z,-0.36
2023-01-26T20:53:58.343Z,-0.40
2023-01-26T20:56:26.178Z,-0.44
2023-01-26T20:58:54.171Z,-0.36
2023-01-26T21:01:22.042Z,-0.39
2023-01-26T21:03:49.486Z,-0.40
2023-01-26T21:06:20.618Z,-0.40
2023-01-26T21:08:48.789Z,-0.37
2023-01-26T21:11:17.032Z,-0.48
2023-01-26T21:13:44.578Z,-0.55
2023-01-26T21:16:14.645Z,-0.44
2023-01-26T21:18:42.261Z,-0.46
2023-01-26T21:21:12.615Z,-0.48
2023-01-26T21:23:39.763Z,-0.49
2023-01-26T21:26:09.842Z,-0.49
2023-01-26T21:28:37.181Z,-0.43
2023-01-26T21:31:10.109Z,-0.47
2023-01-26T21:33:46.730Z,-0.44
2023-01-26T21:36:16.299Z,-0.41
2023-01-26T21:38:46.064Z,-0.40
2023-01-26T21:41:35.137Z,-0.44
2023-01-26T21:44:08.654Z,-0.41
2023-01-26T21:46:35.738Z,-0.43
2023-01-26T21:49:02.955Z,-0.45
2023-01-26T21:51:48.793Z,-0.47
2023-01-26T21:54:16.210Z,-0.51
2023-01-26T21:56:43.311Z,-0.54
2023-01-26T21:59:14.603Z,-0.51
2023-01-26T22:01:47.141Z,-0.47
2023-01-26T22:04:17.234Z,-0.48
2023-01-26T22:06:44.703Z,-0.46
2023-01-26T22:09:15.160Z,-0.42
2023-01-26T22:11:42.676Z,-0.47
2023-01-26T22:14:15.380Z,-0.50
2023-01-26T22:16:42.966Z,-0.46
2023-01-26T22:19:11.240Z,-0.43
2023-01-26T22:21:39.387Z,-0.38
2023-01-26T22:24:10.012Z,-0.37
2023-01-26T22:26:39.006Z,-0.35
2023-01-26T22:29:07.219Z,-0.34
2023-01-26T22:31:37.642Z,-0.32
2023-01-26T22:34:05.325Z,-0.33
2023-01-26T22:36:33.773Z,-0.33
2023-01-26T22:39:02.261Z,-0.34
2023-01-26T22:41:34.668Z,-0.36
2023-01-26T22:44:02.671Z,-0.35
2023-01-26T22:46:31.464Z,-0.40
2023-01-26T22:49:00.102Z,-0.41
2023-01-26T22:51:30.274Z,-0.31
2023-01-26T22:53:59.145Z,-0.46
2023-01-26T22:56:27.381Z,-0.49
2023-01-26T22:58:59.584Z,-0.48
2023-01-26T23:01:29.861Z,-0.49
2023-01-26T23:03:58.479Z,-0.47
2023-01-26T23:06:26.519Z,-0.57
2023-01-26T23:08:54.290Z,-0.57
2023-01-26T23:11:27.027Z,-0.51
2023-01-26T23:13:56.495Z,-0.57
2023-01-26T23:16:24.706Z,-0.61
2023-01-26T23:18:53.788Z,-0.55
2023-01-26T23:21:21.618Z,-0.54
2023-01-26T23:23:49.121Z,-0.49
2023-01-26T23:26:17.217Z,-0.53
2023-01-26T23:28:45.225Z,-0.48
2023-01-26T23:31:14.895Z,-0.47
2023-01-26T23:33:42.752Z,-0.48
2023-01-26T23:36:12.115Z,-0.48
2023-01-26T23:38:39.649Z,-0.49
2023-01-26T23:41:08.639Z,-0.55
2023-01-26T23:43:35.406Z,-0.54
2023-01-26T23:46:02.313Z,-0.53
2023-01-26T23:48:29.001Z,-0.54
2023-01-26T23:51:00.506Z,-0.48
2023-01-26T23:53:28.726Z,-0.53
2023-01-26T23:55:57.166Z,-0.51
2023-01-26T23:58:23.945Z,-0.54
